Time;durP1;ratioP1;P1;durP2;ratioP2;P2;SDS_P1;SDS_P2;PMS_P1;PMS_P2;Temp;Humidity;BMP_temperature;BMP_pressure;BME280_temperature;BME280_humidity;BME280_pressure;Samples;Min_cycle;Max_cycle;Signal;HPM_P1;HPM_P2
2022/07/30 00:00:36;;;;;;;354.45;205.48;;;;;;;;;;5008415;28;20235;-51
2022/07/30 00:03:02;;;;;;;356.40;208.82;;;;;;;;;;4999302;28;20673;-50
2022/07/30 00:05:28;;;;;;;378.67;212.32;;;;;;;;;;5003081;28;20226;-51
2022/07/30 00:07:54;;;;;;;385.50;218.05;;;;;;;;;;5007176;28;20271;-51
2022/07/30 00:10:21;;;;;;;419.13;237.95;;;;;;;;;;5000448;28;20197;-50
2022/07/30 00:12:47;;;;;;;366.55;210.07;;;;;;;;;;5014154;28;20556;-50
2022/07/30 00:15:13;;;;;;;426.90;239.95;;;;;;;;;;5000020;28;20372;-51
2022/07/30 00:17:39;;;;;;;428.67;241.25;;;;;;;;;;4994244;28;20435;-50
2022/07/30 00:20:05;;;;;;;393.10;226.05;;;;;;;;;;5000564;28;20177;-51
2022/07/30 00:22:31;;;;;;;348.95;202.18;;;;;;;;;;5004254;28;20186;-51
2022/07/30 00:24:57;;;;;;;375.67;211.45;;;;;;;;;;5010818;28;20468;-51
2022/07/30 00:27:23;;;;;;;353.63;199.52;;;;;;;;;;5007729;28;20286;-51
2022/07/30 00:29:49;;;;;;;377.17;218.15;;;;;;;;;;5008770;28;20228;-51
2022/07/30 00:32:15;;;;;;;376.48;219.93;;;;;;;;;;4996348;28;20221;-51
2022/07/30 00:34:41;;;;;;;364.17;211.68;;;;;;;;;;5011954;28;20190;-50
2022/07/30 00:37:07;;;;;;;404.50;230.38;;;;;;;;;;4997531;28;20237;-51
2022/07/30 00:39:33;;;;;;;359.75;207.52;;;;;;;;;;5003187;28;20286;-50
2022/07/30 00:42:00;;;;;;;369.83;211.23;;;;;;;;;;4996953;28;20280;-51
2022/07/30 00:44:27;;;;;;;375.15;214.27;;;;;;;;;;4997103;28;20561;-51
2022/07/30 00:46:54;;;;;;;420.73;237.88;;;;;;;;;;4997335;28;20221;-50
2022/07/30 00:49:20;;;;;;;432.07;241.10;;;;;;;;;;5000346;28;20178;-50
2022/07/30 00:51:46;;;;;;;416.58;237.30;;;;;;;;;;4997378;28;20570;-49
2022/07/30 00:54:12;;;;;;;395.25;220.90;;;;;;;;;;5001974;28;20216;-51
2022/07/30 00:56:38;;;;;;;367.13;210.25;;;;;;;;;;4999787;28;20236;-51
2022/07/30 00:59:04;;;;;;;391.07;222.97;;;;;;;;;;5007927;28;20278;-50
2022/07/30 01:01:33;;;;;;;398.77;219.73;;;;;;;;;;5000707;28;20631;-50
2022/07/30 01:03:59;;;;;;;345.63;193.85;;;;;;;;;;5005065;28;20269;-50
2022/07/30 01:06:25;;;;;;;400.00;219.93;;;;;;;;;;4998293;28;20229;-51
2022/07/30 01:08:51;;;;;;;416.10;230.98;;;;;;;;;;4993083;28;21221;-51
2022/07/30 01:11:17;;;;;;;412.38;224.18;;;;;;;;;;4995409;28;20505;-50
2022/07/30 01:13:43;;;;;;;383.35;212.32;;;;;;;;;;4994523;28;20582;-50
2022/07/30 01:16:10;;;;;;;349.77;197.13;;;;;;;;;;4999598;28;20824;-50
2022/07/30 01:21:28;;;;;;;404.13;222.25;;;;;;;;;;4995773;28;20283;-50
2022/07/30 01:23:56;;;;;;;389.63;213.60;;;;;;;;;;5001205;28;20661;-50
2022/07/30 01:26:22;;;;;;;402.98;221.82;;;;;;;;;;4994878;28;20570;-50
2022/07/30 01:28:52;;;;;;;375.55;209.05;;;;;;;;;;4997684;28;20188;-50
2022/07/30 01:31:19;;;;;;;436.13;236.13;;;;;;;;;;4997435;28;20217;-50
2022/07/30 01:33:46;;;;;;;403.13;222.82;;;;;;;;;;4997251;28;20221;-50
2022/07/30 01:36:16;;;;;;;360.58;198.75;;;;;;;;;;4994694;28;20463;-50
2022/07/30 01:38:43;;;;;;;366.25;204.02;;;;;;;;;;4998726;28;20236;-50
2022/07/30 01:41:10;;;;;;;456.33;249.87;;;;;;;;;;4997678;28;20553;-51
2022/07/30 01:43:36;;;;;;;368.10;205.73;;;;;;;;;;4996867;28;20185;-50
2022/07/30 01:46:03;;;;;;;350.77;194.35;;;;;;;;;;4998532;28;20221;-50
2022/07/30 01:48:30;;;;;;;415.90;227.02;;;;;;;;;;4997679;28;20247;-50
2022/07/30 01:50:57;;;;;;;352.95;196.60;;;;;;;;;;5002781;28;20237;-51
2022/07/30 01:53:25;;;;;;;412.17;226.10;;;;;;;;;;4995640;28;20287;-50
2022/07/30 01:55:52;;;;;;;377.35;208.05;;;;;;;;;;4999304;28;20177;-50
2022/07/30 01:58:19;;;;;;;386.60;214.87;;;;;;;;;;4996633;28;20646;-51
2022/07/30 02:00:46;;;;;;;370.47;201.03;;;;;;;;;;4997890;28;20221;-50
2022/07/30 02:03:12;;;;;;;405.23;220.37;;;;;;;;;;4995408;28;20217;-51
2022/07/30 02:05:40;;;;;;;337.67;188.90;;;;;;;;;;5038431;28;20566;-48
2022/07/30 02:08:15;;;;;;;337.30;185.70;;;;;;;;;;5038516;28;20246;-48
2022/07/30 02:10:44;;;;;;;331.58;181.90;;;;;;;;;;5038827;28;20176;-48
2022/07/30 02:13:13;;;;;;;339.87;186.63;;;;;;;;;;5038432;28;20607;-48
2022/07/30 02:15:45;;;;;;;337.98;188.05;;;;;;;;;;5037677;28;20274;-48
2022/07/30 02:18:19;;;;;;;340.95;187.63;;;;;;;;;;5038145;28;20232;-48
2022/07/30 02:20:47;;;;;;;339.10;188.38;;;;;;;;;;5038386;28;20227;-48
2022/07/30 02:23:15;;;;;;;335.48;182.52;;;;;;;;;;5038438;28;20570;-48
2022/07/30 02:25:43;;;;;;;325.87;181.17;;;;;;;;;;5038471;28;20176;-48
2022/07/30 02:28:11;;;;;;;333.95;186.13;;;;;;;;;;5038182;28;20228;-48
2022/07/30 02:30:40;;;;;;;330.67;184.03;;;;;;;;;;5037837;28;20537;-48
2022/07/30 02:33:09;;;;;;;335.52;186.07;;;;;;;;;;5037644;28;20227;-48
2022/07/30 02:35:36;;;;;;;339.73;186.10;;;;;;;;;;5037780;28;20228;-48
2022/07/30 02:38:03;;;;;;;333.23;182.55;;;;;;;;;;5038070;28;20256;-48
2022/07/30 02:40:30;;;;;;;335.70;183.05;;;;;;;;;;5038101;28;20505;-48
2022/07/30 02:42:56;;;;;;;336.58;183.90;;;;;;;;;;5037525;28;20216;-48
2022/07/30 02:45:24;;;;;;;337.45;183.48;;;;;;;;;;5037890;28;20226;-48
2022/07/30 02:47:51;;;;;;;373.45;207.77;;;;;;;;;;5024742;23;20248;-49
2022/07/30 02:50:19;;;;;;;392.85;221.13;;;;;;;;;;5004180;28;20228;-49
2022/07/30 02:52:46;;;;;;;389.43;218.90;;;;;;;;;;4997654;28;20246;-49
2022/07/30 02:55:12;;;;;;;375.08;211.32;;;;;;;;;;5000888;28;20232;-49
2022/07/30 02:57:40;;;;;;;377.40;211.60;;;;;;;;;;5000950;28;20279;-49
2022/07/30 03:00:07;;;;;;;370.10;206.77;;;;;;;;;;5001847;28;20714;-49
2022/07/30 03:02:34;;;;;;;374.67;210.20;;;;;;;;;;5001300;28;20232;-49
2022/07/30 03:05:03;;;;;;;378.83;201.77;;;;;;;;;;4998656;28;20192;-49
2022/07/30 03:07:29;;;;;;;406.40;218.00;;;;;;;;;;4996922;28;20216;-49
2022/07/30 03:09:56;;;;;;;404.67;223.07;;;;;;;;;;4996547;28;20233;-49
2022/07/30 03:12:23;;;;;;;399.30;222.27;;;;;;;;;;4998474;28;20295;-49
2022/07/30 03:14:50;;;;;;;398.67;225.90;;;;;;;;;;4999646;28;20224;-49
2022/07/30 03:17:17;;;;;;;438.73;242.65;;;;;;;;;;4998325;28;20236;-49
2022/07/30 03:19:44;;;;;;;377.42;208.75;;;;;;;;;;4998293;28;20625;-49
2022/07/30 03:22:10;;;;;;;398.60;219.85;;;;;;;;;;4997053;28;20900;-49
2022/07/30 03:24:37;;;;;;;361.85;197.00;;;;;;;;;;4998517;28;20484;-49
2022/07/30 03:27:04;;;;;;;353.95;192.48;;;;;;;;;;5002315;28;20243;-49
2022/07/30 03:29:30;;;;;;;371.23;208.13;;;;;;;;;;5000009;28;20247;-49
2022/07/30 03:31:56;;;;;;;380.60;212.70;;;;;;;;;;5009302;28;20239;-49
2022/07/30 03:34:22;;;;;;;423.92;229.88;;;;;;;;;;4999014;28;20765;-49
2022/07/30 03:36:49;;;;;;;355.07;196.33;;;;;;;;;;5005722;28;20692;-48
2022/07/30 03:39:15;;;;;;;391.23;211.07;;;;;;;;;;5000155;28;20213;-49
2022/07/30 03:41:41;;;;;;;370.83;205.20;;;;;;;;;;5002538;28;20316;-49
2022/07/30 03:44:07;;;;;;;404.83;224.02;;;;;;;;;;5001383;28;20788;-49
2022/07/30 03:46:35;;;;;;;378.40;207.20;;;;;;;;;;5000643;28;20648;-49
2022/07/30 03:49:01;;;;;;;386.63;214.20;;;;;;;;;;5003560;28;20228;-49
2022/07/30 03:51:27;;;;;;;382.40;212.07;;;;;;;;;;5005331;28;20243;-49
2022/07/30 03:53:53;;;;;;;373.57;209.13;;;;;;;;;;5000949;28;20457;-49
2022/07/30 03:56:19;;;;;;;358.13;198.95;;;;;;;;;;5000492;28;21856;-49
2022/07/30 03:58:46;;;;;;;438.90;242.93;;;;;;;;;;5002861;28;20196;-49
2022/07/30 04:01:11;;;;;;;361.88;202.95;;;;;;;;;;5004395;28;20636;-49
2022/07/30 04:03:37;;;;;;;399.93;223.53;;;;;;;;;;5000451;28;20233;-48
2022/07/30 04:06:03;;;;;;;370.83;204.97;;;;;;;;;;5004879;28;20290;-49
2022/07/30 04:08:30;;;;;;;412.50;225.90;;;;;;;;;;5002684;28;20240;-49
2022/07/30 04:10:56;;;;;;;354.53;196.43;;;;;;;;;;5006868;28;20215;-49
2022/07/30 04:13:22;;;;;;;361.87;203.60;;;;;;;;;;4995515;28;20228;-49
2022/07/30 04:15:55;;;;;;;425.40;233.20;;;;;;;;;;4993393;28;20232;-49
2022/07/30 04:18:22;;;;;;;380.67;211.87;;;;;;;;;;4994779;28;20228;-49
2022/07/30 04:20:48;;;;;;;370.30;208.37;;;;;;;;;;4995863;28;20225;-49
2022/07/30 04:23:14;;;;;;;412.70;226.00;;;;;;;;;;4997358;28;20776;-49
2022/07/30 04:25:41;;;;;;;403.67;224.30;;;;;;;;;;5001569;28;20185;-49
2022/07/30 04:28:09;;;;;;;402.80;222.57;;;;;;;;;;4994421;28;20236;-49
2022/07/30 04:30:35;;;;;;;407.63;227.17;;;;;;;;;;4996577;28;20251;-49
2022/07/30 04:33:02;;;;;;;382.47;214.17;;;;;;;;;;4993258;28;20661;-49
2022/07/30 04:35:29;;;;;;;400.23;224.97;;;;;;;;;;4994625;28;20232;-49
2022/07/30 04:37:55;;;;;;;392.87;216.63;;;;;;;;;;5003895;28;20957;-49
2022/07/30 04:40:21;;;;;;;408.40;226.33;;;;;;;;;;5000283;28;20216;-49
2022/07/30 04:42:47;;;;;;;368.50;209.53;;;;;;;;;;4993454;28;20692;-49
2022/07/30 04:45:13;;;;;;;412.90;230.23;;;;;;;;;;4995595;28;20318;-49
2022/07/30 04:47:39;;;;;;;369.90;212.37;;;;;;;;;;4993279;28;20236;-49
2022/07/30 04:50:06;;;;;;;371.75;213.95;;;;;;;;;;4993258;28;20184;-49
2022/07/30 04:52:33;;;;;;;392.00;220.10;;;;;;;;;;5000725;28;20209;-49
2022/07/30 04:55:01;;;;;;;400.23;226.23;;;;;;;;;;4995537;28;20217;-49
2022/07/30 04:57:27;;;;;;;404.93;224.97;;;;;;;;;;4993973;28;20484;-49
2022/07/30 04:59:53;;;;;;;399.07;219.53;;;;;;;;;;4996020;28;20676;-49
2022/07/30 05:02:20;;;;;;;399.30;217.57;;;;;;;;;;5000997;28;20236;-49
2022/07/30 05:04:46;;;;;;;426.87;227.20;;;;;;;;;;4997536;28;20219;-49
2022/07/30 05:07:13;;;;;;;361.37;197.87;;;;;;;;;;4990995;28;20291;-49
2022/07/30 05:09:39;;;;;;;444.17;239.27;;;;;;;;;;4990671;28;20265;-49
2022/07/30 05:12:05;;;;;;;347.57;183.90;;;;;;;;;;4995357;28;20297;-49
2022/07/30 05:14:31;;;;;;;386.63;205.97;;;;;;;;;;4998622;28;20240;-49
2022/07/30 05:16:57;;;;;;;407.80;219.73;;;;;;;;;;4993977;28;20205;-49
2022/07/30 05:19:24;;;;;;;370.80;203.57;;;;;;;;;;4990275;28;20173;-49
2022/07/30 05:21:50;;;;;;;391.30;216.60;;;;;;;;;;4995678;28;20212;-49
2022/07/30 05:24:15;;;;;;;418.13;229.80;;;;;;;;;;4994307;28;20220;-49
2022/07/30 05:26:41;;;;;;;415.97;233.20;;;;;;;;;;4990244;28;20658;-49
2022/07/30 05:29:07;;;;;;;462.50;255.30;;;;;;;;;;4979698;28;20605;-49
2022/07/30 05:31:33;;;;;;;392.40;223.97;;;;;;;;;;4991981;28;20192;-49
2022/07/30 05:33:59;;;;;;;406.33;225.70;;;;;;;;;;4998088;28;20224;-48
2022/07/30 05:36:25;;;;;;;411.00;228.37;;;;;;;;;;4987560;28;20240;-49
2022/07/30 05:38:51;;;;;;;388.63;213.67;;;;;;;;;;5002257;28;20565;-50
2022/07/30 05:41:17;;;;;;;405.27;227.27;;;;;;;;;;4993998;28;20233;-50
2022/07/30 05:43:43;;;;;;;373.63;210.40;;;;;;;;;;4995367;28;20201;-50
2022/07/30 05:46:09;;;;;;;375.47;206.03;;;;;;;;;;4990780;28;20224;-50
2022/07/30 05:48:35;;;;;;;355.70;190.77;;;;;;;;;;4993274;28;20242;-50
2022/07/30 05:51:01;;;;;;;374.92;203.70;;;;;;;;;;4995765;28;20294;-50
2022/07/30 05:53:27;;;;;;;414.77;231.97;;;;;;;;;;4998670;28;20656;-50
2022/07/30 05:55:53;;;;;;;389.90;221.18;;;;;;;;;;4992811;28;20259;-50
2022/07/30 05:58:19;;;;;;;421.43;230.60;;;;;;;;;;4994343;28;20206;-50
2022/07/30 06:00:45;;;;;;;402.60;221.63;;;;;;;;;;4996867;28;20301;-50
2022/07/30 06:03:12;;;;;;;394.47;219.00;;;;;;;;;;4994655;28;20658;-50
2022/07/30 06:05:37;;;;;;;401.13;230.73;;;;;;;;;;4998374;28;20228;-51
2022/07/30 06:08:03;;;;;;;406.67;231.97;;;;;;;;;;4995334;28;20210;-50
2022/07/30 06:10:30;;;;;;;419.73;234.70;;;;;;;;;;4998474;28;20259;-50
2022/07/30 06:12:56;;;;;;;393.70;220.80;;;;;;;;;;4998143;28;20227;-50
2022/07/30 06:15:21;;;;;;;365.38;206.25;;;;;;;;;;4996052;28;20669;-50
2022/07/30 06:17:48;;;;;;;381.53;216.93;;;;;;;;;;4993564;28;20680;-50
2022/07/30 06:20:14;;;;;;;413.37;230.80;;;;;;;;;;4991695;28;20233;-50
2022/07/30 06:22:40;;;;;;;377.57;210.77;;;;;;;;;;4973547;28;20664;-50
2022/07/30 06:25:07;;;;;;;403.70;224.53;;;;;;;;;;4992477;28;20333;-50
2022/07/30 06:27:33;;;;;;;367.73;210.87;;;;;;;;;;4993225;28;20930;-50
2022/07/30 06:30:06;;;;;;;421.55;234.45;;;;;;;;;;4987500;28;20283;-50
2022/07/30 06:32:32;;;;;;;424.53;234.57;;;;;;;;;;4987694;28;20823;-50
2022/07/30 06:34:58;;;;;;;395.00;225.13;;;;;;;;;;5001725;28;20540;-49
2022/07/30 06:37:24;;;;;;;421.20;229.87;;;;;;;;;;4991943;28;20207;-50
2022/07/30 06:39:50;;;;;;;373.98;210.10;;;;;;;;;;4993358;28;20220;-50
2022/07/30 06:42:16;;;;;;;398.30;224.85;;;;;;;;;;4996789;28;20533;-50
2022/07/30 06:44:42;;;;;;;397.08;220.95;;;;;;;;;;4995206;28;20225;-50
2022/07/30 06:47:08;;;;;;;372.88;209.18;;;;;;;;;;4995871;28;20557;-50
2022/07/30 06:49:35;;;;;;;391.45;217.98;;;;;;;;;;4995504;28;20194;-50
2022/07/30 06:52:01;;;;;;;350.02;197.23;;;;;;;;;;5001391;28;20220;-50
2022/07/30 06:54:27;;;;;;;433.27;237.88;;;;;;;;;;5003478;28;20791;-50
2022/07/30 06:56:53;;;;;;;399.60;225.15;;;;;;;;;;4998336;28;20621;-50
2022/07/30 06:59:19;;;;;;;384.95;215.90;;;;;;;;;;4997484;28;20249;-50
2022/07/30 07:01:46;;;;;;;426.77;242.57;;;;;;;;;;4990048;28;20271;-50
2022/07/30 07:04:12;;;;;;;368.95;212.82;;;;;;;;;;4999373;28;20526;-50
2022/07/30 07:06:37;;;;;;;385.50;222.82;;;;;;;;;;4991364;28;20229;-50
2022/07/30 07:09:03;;;;;;;365.60;210.60;;;;;;;;;;5001158;28;20227;-50
2022/07/30 07:11:30;;;;;;;417.67;234.48;;;;;;;;;;4996552;28;20224;-50
2022/07/30 07:13:56;;;;;;;396.17;220.77;;;;;;;;;;4993921;28;20188;-49
2022/07/30 07:16:24;;;;;;;411.38;229.05;;;;;;;;;;4993004;28;20534;-50
2022/07/30 07:18:51;;;;;;;389.20;237.82;;;;;;;;;;4985289;28;20221;-50
2022/07/30 07:21:17;;;;;;;390.83;226.33;;;;;;;;;;4992792;28;20221;-49
2022/07/30 07:23:43;;;;;;;374.20;215.95;;;;;;;;;;5002268;28;20527;-50
2022/07/30 07:26:09;;;;;;;386.48;220.55;;;;;;;;;;4993092;28;20189;-50
2022/07/30 07:28:35;;;;;;;392.25;221.85;;;;;;;;;;5001628;28;20293;-50
2022/07/30 07:31:02;;;;;;;367.25;209.10;;;;;;;;;;5001794;28;20233;-50
2022/07/30 07:33:28;;;;;;;383.73;214.25;;;;;;;;;;5002963;28;20272;-50
2022/07/30 07:35:54;;;;;;;377.52;212.93;;;;;;;;;;4998040;28;20224;-50
2022/07/30 07:38:20;;;;;;;387.27;217.48;;;;;;;;;;4997405;28;20232;-50
2022/07/30 07:40:46;;;;;;;410.08;239.75;;;;;;;;;;4994654;28;20277;-50
2022/07/30 07:43:13;;;;;;;366.58;208.25;;;;;;;;;;5011121;28;20221;-50
2022/07/30 07:45:39;;;;;;;438.05;250.20;;;;;;;;;;4996988;28;20254;-49
2022/07/30 07:48:05;;;;;;;345.67;200.30;;;;;;;;;;5003338;28;20236;-50
2022/07/30 07:50:31;;;;;;;460.38;266.50;;;;;;;;;;4988097;28;20224;-50
2022/07/30 07:52:57;;;;;;;417.25;244.70;;;;;;;;;;4992622;28;20280;-50
2022/07/30 07:55:23;;;;;;;429.20;246.23;;;;;;;;;;4998591;28;20594;-51
2022/07/30 07:57:49;;;;;;;363.73;215.88;;;;;;;;;;4994619;28;20224;-50
2022/07/30 08:00:15;;;;;;;423.05;245.85;;;;;;;;;;4984324;28;20638;-50
2022/07/30 08:02:41;;;;;;;388.80;229.90;;;;;;;;;;4991489;28;20284;-49
2022/07/30 08:05:09;;;;;;;395.52;240.20;;;;;;;;;;5002815;28;20240;-49
2022/07/30 08:07:35;;;;;;;395.35;245.30;;;;;;;;;;5004227;28;20228;-50
2022/07/30 08:10:01;;;;;;;505.95;307.13;;;;;;;;;;4992804;28;20224;-49
2022/07/30 08:12:27;;;;;;;356.15;228.13;;;;;;;;;;4996980;28;20500;-49
2022/07/30 08:14:53;;;;;;;408.98;253.45;;;;;;;;;;5001946;28;20272;-49
2022/07/30 08:17:19;;;;;;;464.10;276.20;;;;;;;;;;4996440;28;20705;-49
2022/07/30 08:19:45;;;;;;;452.45;275.52;;;;;;;;;;4987436;28;20194;-51
2022/07/30 08:22:11;;;;;;;458.70;279.40;;;;;;;;;;4988897;28;20221;-51
2022/07/30 08:24:37;;;;;;;399.67;257.58;;;;;;;;;;4990789;28;20661;-51
2022/07/30 08:27:03;;;;;;;445.25;278.70;;;;;;;;;;4990920;28;20244;-50
2022/07/30 08:29:30;;;;;;;370.92;226.10;;;;;;;;;;5004574;28;20696;-50
2022/07/30 08:31:56;;;;;;;457.50;275.77;;;;;;;;;;4991509;28;20224;-50
2022/07/30 08:34:22;;;;;;;390.42;241.52;;;;;;;;;;4996468;28;20196;-50
2022/07/30 08:36:48;;;;;;;367.63;231.82;;;;;;;;;;5009265;28;20293;-51
2022/07/30 08:39:13;;;;;;;378.35;238.85;;;;;;;;;;5002331;28;20734;-50
2022/07/30 08:41:41;;;;;;;362.20;221.40;;;;;;;;;;5002133;28;20275;-50
2022/07/30 08:44:09;;;;;;;367.35;222.25;;;;;;;;;;5004108;28;20186;-50
2022/07/30 08:49:04;;;;;;;330.23;193.02;;;;;;;;;;5036175;28;20251;-50
2022/07/30 08:51:30;;;;;;;343.75;203.65;;;;;;;;;;5040894;28;20224;-50
2022/07/30 08:53:56;;;;;;;337.05;202.57;;;;;;;;;;5040827;28;20563;-50
2022/07/30 08:56:22;;;;;;;345.15;208.93;;;;;;;;;;5040348;28;20224;-50
2022/07/30 08:58:48;;;;;;;332.83;199.38;;;;;;;;;;5040837;28;20303;-50
2022/07/30 09:01:14;;;;;;;331.17;197.60;;;;;;;;;;5040787;28;20261;-50
2022/07/30 09:03:41;;;;;;;368.20;217.20;;;;;;;;;;5036237;28;20220;-52
2022/07/30 09:06:07;;;;;;;407.40;252.05;;;;;;;;;;5028008;28;20216;-52
2022/07/30 09:08:32;;;;;;;355.85;211.88;;;;;;;;;;5031013;28;20234;-53
2022/07/30 09:10:59;;;;;;;357.52;213.48;;;;;;;;;;5025502;28;20658;-52
2022/07/30 09:13:27;;;;;;;365.52;216.40;;;;;;;;;;5028744;28;20543;-53
2022/07/30 09:15:54;;;;;;;364.58;217.77;;;;;;;;;;5021561;28;20232;-52
2022/07/30 09:18:33;;;;;;;360.00;216.85;;;;;;;;;;5027127;28;20231;-53
2022/07/30 09:20:59;;;;;;;352.83;211.20;;;;;;;;;;5027002;28;20693;-53
2022/07/30 09:23:25;;;;;;;376.75;223.32;;;;;;;;;;5028661;28;20270;-53
2022/07/30 09:25:51;;;;;;;356.05;213.10;;;;;;;;;;5027670;28;20545;-52
2022/07/30 09:28:26;;;;;;;357.42;213.38;;;;;;;;;;5022781;28;20251;-53
2022/07/30 09:30:53;;;;;;;363.33;216.23;;;;;;;;;;5021926;28;20215;-52
2022/07/30 09:33:36;;;;;;;347.92;214.43;;;;;;;;;;5028899;28;20247;-53
2022/07/30 09:36:03;;;;;;;396.20;237.95;;;;;;;;;;5034214;28;20659;-53
2022/07/30 09:38:30;;;;;;;342.00;212.65;;;;;;;;;;5028457;28;20736;-52
2022/07/30 09:40:57;;;;;;;361.58;219.15;;;;;;;;;;5028126;28;20185;-52
2022/07/30 09:43:23;;;;;;;365.85;224.73;;;;;;;;;;5018664;28;20181;-52
2022/07/30 09:45:54;;;;;;;338.60;207.50;;;;;;;;;;5027507;28;20286;-53
2022/07/30 09:48:24;;;;;;;420.40;252.13;;;;;;;;;;5000320;28;20239;-53
2022/07/30 09:50:50;;;;;;;397.10;238.20;;;;;;;;;;5023429;28;20220;-52
2022/07/30 09:53:17;;;;;;;378.58;224.57;;;;;;;;;;5015752;28;20225;-53
2022/07/30 09:55:43;;;;;;;437.20;270.25;;;;;;;;;;5018666;28;20176;-53
2022/07/30 09:58:10;;;;;;;406.33;243.88;;;;;;;;;;5026722;28;20352;-53
2022/07/30 10:00:36;;;;;;;367.80;231.43;;;;;;;;;;5021678;28;20228;-53
2022/07/30 10:03:14;;;;;;;378.25;235.88;;;;;;;;;;5023460;28;20867;-52
2022/07/30 10:05:48;;;;;;;406.90;256.67;;;;;;;;;;5022373;28;20291;-53
2022/07/30 10:08:14;;;;;;;372.02;247.38;;;;;;;;;;5022548;28;20227;-52
2022/07/30 10:10:40;;;;;;;353.27;226.32;;;;;;;;;;5025863;28;20578;-53
2022/07/30 10:13:07;;;;;;;354.48;231.00;;;;;;;;;;5018966;28;20704;-53
2022/07/30 10:15:35;;;;;;;385.27;246.15;;;;;;;;;;5031528;28;20211;-53
2022/07/30 10:18:01;;;;;;;354.67;219.30;;;;;;;;;;5023092;28;20234;-53
2022/07/30 10:20:27;;;;;;;397.02;256.52;;;;;;;;;;5025029;28;20554;-53
2022/07/30 10:22:53;;;;;;;370.30;235.80;;;;;;;;;;5030173;28;20209;-52
2022/07/30 10:25:21;;;;;;;346.83;221.02;;;;;;;;;;5021233;28;20184;-53
2022/07/30 10:27:47;;;;;;;339.08;228.13;;;;;;;;;;5028363;28;20731;-52
2022/07/30 10:30:13;;;;;;;358.60;229.40;;;;;;;;;;5020739;28;20224;-53
2022/07/30 10:32:39;;;;;;;360.77;232.55;;;;;;;;;;5023970;28;20224;-52
2022/07/30 10:35:06;;;;;;;366.67;239.45;;;;;;;;;;5027433;28;20180;-52
2022/07/30 10:37:32;;;;;;;337.00;227.57;;;;;;;;;;5022110;28;20340;-53
2022/07/30 10:40:33;;;;;;;348.13;222.85;;;;;;;;;;5026849;28;20221;-53
2022/07/30 10:43:02;;;;;;;368.52;237.45;;;;;;;;;;4934489;29;20227;-53
2022/07/30 10:45:48;;;;;;;412.13;256.15;;;;;;;;;;5006430;28;20228;-52
2022/07/30 10:48:15;;;;;;;411.17;254.60;;;;;;;;;;5023386;28;20553;-53
2022/07/30 10:50:51;;;;;;;370.65;235.50;;;;;;;;;;5026509;28;20517;-52
2022/07/30 10:53:35;;;;;;;352.67;224.95;;;;;;;;;;5023514;28;20278;-52
2022/07/30 10:56:14;;;;;;;370.65;235.60;;;;;;;;;;5022852;28;20234;-53
2022/07/30 10:58:58;;;;;;;361.55;229.48;;;;;;;;;;5022919;28;20176;-53
2022/07/30 11:01:25;;;;;;;373.52;247.30;;;;;;;;;;5022214;28;20223;-53
2022/07/30 11:04:16;;;;;;;381.55;240.38;;;;;;;;;;5024235;28;20225;-53
2022/07/30 11:06:42;;;;;;;368.88;232.45;;;;;;;;;;5021662;28;20244;-53
2022/07/30 11:09:27;;;;;;;379.88;243.77;;;;;;;;;;5023689;28;20212;-53
2022/07/30 11:11:53;;;;;;;355.23;225.32;;;;;;;;;;5029869;28;20215;-53
2022/07/30 11:14:19;;;;;;;583.38;362.75;;;;;;;;;;5018660;28;20270;-53
2022/07/30 11:16:50;;;;;;;407.25;263.45;;;;;;;;;;5013572;28;20203;-53
2022/07/30 11:19:17;;;;;;;426.17;255.70;;;;;;;;;;5013580;28;20665;-52
2022/07/30 11:21:44;;;;;;;377.70;240.50;;;;;;;;;;5016468;28;20275;-53
2022/07/30 11:24:28;;;;;;;350.20;231.88;;;;;;;;;;5026946;28;20216;-53
2022/07/30 11:26:54;;;;;;;407.92;255.35;;;;;;;;;;5016977;28;20220;-53
2022/07/30 11:29:33;;;;;;;426.95;261.15;;;;;;;;;;5017770;28;20235;-53
2022/07/30 11:32:18;;;;;;;426.20;263.77;;;;;;;;;;5010980;28;20711;-53
2022/07/30 11:34:44;;;;;;;373.88;242.25;;;;;;;;;;5014344;28;20172;-53
2022/07/30 11:37:16;;;;;;;392.17;256.30;;;;;;;;;;5013826;28;20711;-53
2022/07/30 11:39:57;;;;;;;423.05;264.35;;;;;;;;;;5009183;28;20235;-53
2022/07/30 11:42:23;;;;;;;408.77;266.23;;;;;;;;;;5017309;28;20473;-53
2022/07/30 11:44:49;;;;;;;397.85;268.13;;;;;;;;;;5017512;28;20224;-53
2022/07/30 11:47:15;;;;;;;348.20;230.27;;;;;;;;;;5013278;28;20235;-53
2022/07/30 11:49:41;;;;;;;396.05;252.52;;;;;;;;;;5015463;28;20679;-53
2022/07/30 11:52:08;;;;;;;451.77;288.77;;;;;;;;;;5024907;28;20223;-53
2022/07/30 11:54:50;;;;;;;409.90;270.88;;;;;;;;;;5017866;28;20278;-53
2022/07/30 11:57:15;;;;;;;408.63;264.20;;;;;;;;;;5019816;28;20525;-53
2022/07/30 11:59:57;;;;;;;397.50;248.50;;;;;;;;;;5026346;28;20227;-53
2022/07/30 12:02:26;;;;;;;417.02;265.70;;;;;;;;;;5024747;28;20295;-55
2022/07/30 12:04:52;;;;;;;403.73;260.40;;;;;;;;;;5024066;28;20199;-55
2022/07/30 12:07:22;;;;;;;416.70;257.55;;;;;;;;;;5026369;28;20197;-55
2022/07/30 12:09:48;;;;;;;381.95;242.95;;;;;;;;;;5024710;28;20231;-55
2022/07/30 12:12:24;;;;;;;391.05;257.70;;;;;;;;;;5024669;28;20536;-55
2022/07/30 12:14:50;;;;;;;406.08;255.30;;;;;;;;;;5022827;28;20220;-55
2022/07/30 12:17:16;;;;;;;400.30;273.55;;;;;;;;;;5022021;28;20679;-55
2022/07/30 12:19:46;;;;;;;387.20;245.57;;;;;;;;;;5022061;28;20176;-55
2022/07/30 12:22:12;;;;;;;394.75;246.80;;;;;;;;;;5020700;28;20228;-55
2022/07/30 12:24:38;;;;;;;396.05;247.57;;;;;;;;;;5027415;28;20250;-55
2022/07/30 12:27:05;;;;;;;392.02;251.40;;;;;;;;;;5021121;28;20227;-55
2022/07/30 12:29:31;;;;;;;395.02;253.50;;;;;;;;;;5022799;28;20212;-55
2022/07/30 12:31:57;;;;;;;445.13;283.52;;;;;;;;;;5022488;28;20195;-55
2022/07/30 12:34:24;;;;;;;412.52;261.92;;;;;;;;;;5017635;28;20177;-55
2022/07/30 12:36:50;;;;;;;378.42;245.68;;;;;;;;;;5022498;28;20228;-55
2022/07/30 12:39:23;;;;;;;419.08;258.50;;;;;;;;;;5017272;28;20217;-55
2022/07/30 12:41:50;;;;;;;385.90;247.30;;;;;;;;;;5023849;28;20239;-55
2022/07/30 12:44:35;;;;;;;435.15;276.17;;;;;;;;;;5021340;28;20273;-55
2022/07/30 12:47:01;;;;;;;395.85;251.95;;;;;;;;;;5024990;28;20266;-55
2022/07/30 12:49:28;;;;;;;423.92;265.58;;;;;;;;;;5025793;28;20188;-55
2022/07/30 12:51:54;;;;;;;400.23;260.58;;;;;;;;;;5021443;28;20231;-55
2022/07/30 12:54:21;;;;;;;383.98;244.43;;;;;;;;;;5026628;28;20228;-55
2022/07/30 12:56:56;;;;;;;393.45;245.63;;;;;;;;;;5027122;28;20540;-55
2022/07/30 12:59:23;;;;;;;402.05;247.98;;;;;;;;;;5019918;28;20525;-55
2022/07/30 13:01:51;;;;;;;407.38;246.57;;;;;;;;;;5024856;28;20194;-55
2022/07/30 13:04:16;;;;;;;424.85;261.95;;;;;;;;;;5023273;28;20226;-55
2022/07/30 13:06:43;;;;;;;415.13;253.20;;;;;;;;;;5022003;28;20684;-54
2022/07/30 13:09:19;;;;;;;404.40;247.38;;;;;;;;;;5022783;28;20290;-55
2022/07/30 13:11:45;;;;;;;366.52;227.50;;;;;;;;;;5025209;28;20552;-55
2022/07/30 13:14:12;;;;;;;383.10;233.45;;;;;;;;;;5021375;28;20274;-55
2022/07/30 13:16:39;;;;;;;418.55;256.02;;;;;;;;;;5020633;28;20208;-55
2022/07/30 13:19:05;;;;;;;385.60;249.15;;;;;;;;;;5022326;28;20501;-55
2022/07/30 13:21:32;;;;;;;405.10;257.20;;;;;;;;;;5021864;28;20247;-55
2022/07/30 13:23:59;;;;;;;404.80;255.02;;;;;;;;;;5026487;28;20676;-55
2022/07/30 13:26:25;;;;;;;385.10;242.10;;;;;;;;;;5020996;28;20228;-55
2022/07/30 13:28:51;;;;;;;398.08;245.77;;;;;;;;;;5010180;28;20196;-55
2022/07/30 13:31:17;;;;;;;441.45;271.45;;;;;;;;;;5023267;28;20185;-55
2022/07/30 13:33:43;;;;;;;402.83;250.25;;;;;;;;;;5019847;28;20243;-55
2022/07/30 13:36:09;;;;;;;406.92;249.73;;;;;;;;;;5011492;28;20224;-55
2022/07/30 13:38:35;;;;;;;382.63;236.15;;;;;;;;;;5024383;28;20239;-54
2022/07/30 13:41:03;;;;;;;410.55;255.30;;;;;;;;;;5018443;28;20181;-55
2022/07/30 13:43:29;;;;;;;401.25;236.85;;;;;;;;;;5023732;28;20196;-54
2022/07/30 13:45:55;;;;;;;402.02;242.02;;;;;;;;;;5016106;28;20658;-55
2022/07/30 13:48:21;;;;;;;429.63;250.38;;;;;;;;;;5018578;28;20229;-55
2022/07/30 13:50:48;;;;;;;369.88;227.40;;;;;;;;;;5018441;28;20217;-54
2022/07/30 13:53:14;;;;;;;392.50;237.45;;;;;;;;;;5016509;28;20219;-55
2022/07/30 13:55:41;;;;;;;442.30;263.70;;;;;;;;;;5018718;28;20176;-55
2022/07/30 13:58:07;;;;;;;373.33;230.13;;;;;;;;;;5016034;28;20286;-54